Time;durP1;ratioP1;P1;durP2;ratioP2;P2;SDS_P1;SDS_P2;PMS_P1;PMS_P2;Temp;Humidity;BMP_temperature;BMP_pressure;BME280_temperature;BME280_humidity;BME280_pressure;Samples;Min_cycle;Max_cycle;Signal;HPM_P1;HPM_P2
2024/01/02 00:00:59;;;;;;;27.52;11.32;;;19.60;60.40;;;;;;4998027;28;20035;-63
2024/01/02 00:03:25;;;;;;;28.05;11.20;;;19.60;60.70;;;;;;4993552;28;20410;-63
2024/01/02 00:05:51;;;;;;;22.98;10.43;;;19.60;60.40;;;;;;4993176;28;20054;-63
2024/01/02 00:08:16;;;;;;;30.40;11.30;;;19.60;60.40;;;;;;4993506;28;20508;-62
2024/01/02 00:10:42;;;;;;;30.08;11.60;;;19.60;60.30;;;;;;4993385;28;20034;-64
2024/01/02 00:13:08;;;;;;;24.85;10.85;;;19.60;60.30;;;;;;4993340;28;20035;-63
2024/01/02 00:15:34;;;;;;;26.00;11.32;;;19.60;60.40;;;;;;4993094;28;20061;-62
2024/01/02 00:17:59;;;;;;;26.85;11.40;;;19.60;60.30;;;;;;4997543;28;20034;-63
2024/01/02 00:20:25;;;;;;;25.88;11.90;;;19.60;60.40;;;;;;4993407;28;20030;-62
2024/01/02 00:22:51;;;;;;;25.83;11.52;;;19.60;60.40;;;;;;4993469;28;20508;-64
2024/01/02 00:25:17;;;;;;;25.33;11.10;;;19.60;60.30;;;;;;4992829;28;20445;-64
2024/01/02 00:27:42;;;;;;;32.45;11.82;;;19.60;60.30;;;;;;4992652;28;20405;-60
2024/01/02 00:30:09;;;;;;;24.40;10.90;;;19.60;61.20;;;;;;4993057;28;20105;-64
2024/01/02 00:32:36;;;;;;;23.80;10.40;;;19.60;60.50;;;;;;4975348;28;20100;-64
2024/01/02 00:35:03;;;;;;;28.30;11.00;;;19.60;60.50;;;;;;4975524;28;20038;-64
2024/01/02 00:37:29;;;;;;;22.83;10.23;;;19.60;60.20;;;;;;4993256;28;20414;-62
2024/01/02 00:39:55;;;;;;;30.92;11.35;;;19.60;60.60;;;;;;4989998;28;20037;-63
2024/01/02 00:42:20;;;;;;;30.40;11.23;;;19.60;61.20;;;;;;4992866;28;20409;-63
2024/01/02 00:44:46;;;;;;;27.23;10.82;;;19.60;60.50;;;;;;4992593;28;20084;-64
2024/01/02 00:47:12;;;;;;;25.50;10.43;;;19.60;60.50;;;;;;4992495;28;20124;-64
2024/01/02 00:49:38;;;;;;;29.15;10.88;;;19.60;60.50;;;;;;4999742;28;20027;-64
2024/01/02 00:52:05;;;;;;;25.67;9.45;;;19.60;60.80;;;;;;4997012;28;20041;-63
2024/01/02 00:54:30;;;;;;;23.65;10.38;;;19.60;60.30;;;;;;4992476;28;20105;-63
2024/01/02 00:56:56;;;;;;;26.85;10.00;;;19.60;60.20;;;;;;4992479;28;20173;-63
2024/01/02 00:59:22;;;;;;;25.10;10.38;;;19.50;60.10;;;;;;4975206;28;20465;-62
2024/01/02 01:01:47;;;;;;;25.92;9.93;;;19.50;60.20;;;;;;4992621;28;20590;-63
2024/01/02 01:04:13;;;;;;;22.33;9.73;;;19.50;60.30;;;;;;4991556;28;20050;-64
2024/01/02 01:06:39;;;;;;;24.50;10.82;;;19.50;60.40;;;;;;4992281;28;20509;-62
2024/01/02 01:09:05;;;;;;;26.83;10.00;;;19.50;60.40;;;;;;4979296;28;20029;-63
2024/01/02 01:11:30;;;;;;;26.15;10.73;;;19.50;60.40;;;;;;4975106;28;20101;-63
2024/01/02 01:13:56;;;;;;;32.72;12.23;;;19.50;60.50;;;;;;4992203;28;20026;-64
2024/01/02 01:16:22;;;;;;;25.88;10.27;;;19.50;61.20;;;;;;4991947;28;20429;-64
2024/01/02 01:18:49;;;;;;;24.10;10.55;;;19.50;60.70;;;;;;4990493;28;20034;-63
2024/01/02 01:21:15;;;;;;;26.65;10.23;;;19.50;60.60;;;;;;4992218;28;20034;-64
2024/01/02 01:23:40;;;;;;;22.73;9.63;;;19.40;60.80;;;;;;4992280;28;20030;-63
2024/01/02 01:26:06;;;;;;;31.67;10.98;;;19.50;60.80;;;;;;4990782;28;20026;-63
2024/01/02 01:28:32;;;;;;;29.38;10.43;;;19.50;61.00;;;;;;4974118;28;20022;-63
2024/01/02 01:30:57;;;;;;;25.23;11.18;;;19.40;60.80;;;;;;4989155;28;20038;-63
2024/01/02 01:33:23;;;;;;;23.90;11.13;;;19.40;61.00;;;;;;4991208;28;20054;-63
2024/01/02 01:35:49;;;;;;;25.13;10.43;;;19.40;61.10;;;;;;4976316;28;20093;-63
2024/01/02 01:38:15;;;;;;;22.77;9.85;;;19.40;60.90;;;;;;4992089;28;20231;-63
2024/01/02 01:40:40;;;;;;;37.38;10.48;;;19.40;60.80;;;;;;4990525;28;20026;-62
2024/01/02 01:43:13;;;;;;;22.02;10.23;;;19.40;60.80;;;;;;4990470;28;20084;-64
2024/01/02 01:45:39;;;;;;;23.13;10.82;;;19.40;60.90;;;;;;4971705;28;20042;-63
2024/01/02 01:48:07;;;;;;;26.10;10.57;;;19.40;60.70;;;;;;4990620;28;20025;-63
2024/01/02 01:50:34;;;;;;;28.50;11.15;;;19.40;60.70;;;;;;4990845;28;20084;-63
2024/01/02 01:53:01;;;;;;;26.67;10.70;;;19.40;60.70;;;;;;4974490;28;20402;-63
2024/01/02 01:55:28;;;;;;;20.80;10.75;;;19.40;60.50;;;;;;4968819;28;20022;-63
2024/01/02 01:57:54;;;;;;;23.02;10.88;;;19.40;60.60;;;;;;4973192;28;20042;-63
2024/01/02 02:00:20;;;;;;;26.42;10.55;;;19.40;60.60;;;;;;4971046;28;20027;-62
2024/01/02 02:02:46;;;;;;;21.30;10.55;;;19.40;60.40;;;;;;4973392;28;20034;-63
2024/01/02 02:05:12;;;;;;;24.27;10.77;;;19.40;60.30;;;;;;4990908;28;20033;-63
2024/01/02 02:07:40;;;;;;;22.50;9.95;;;19.40;60.40;;;;;;4991051;28;20105;-63
2024/01/02 02:10:08;;;;;;;21.80;10.20;;;19.40;60.70;;;;;;4982401;28;20027;-63
2024/01/02 02:12:35;;;;;;;23.95;10.32;;;19.40;60.70;;;;;;4973622;28;20167;-64
2024/01/02 02:15:01;;;;;;;24.27;10.43;;;19.40;61.00;;;;;;4992668;28;20026;-63
2024/01/02 02:17:30;;;;;;;22.75;10.05;;;19.30;61.50;;;;;;4999938;28;20026;-63
2024/01/02 02:19:56;;;;;;;22.27;9.80;;;19.30;60.80;;;;;;4977192;28;20053;-63
2024/01/02 02:22:38;;;;;;;24.40;9.73;;;19.40;60.80;;;;;;4977482;28;20046;-64
2024/01/02 02:25:06;;;;;;;25.27;9.48;;;19.30;60.80;;;;;;4974049;28;20030;-64
2024/01/02 02:27:33;;;;;;;20.02;9.30;;;19.30;60.70;;;;;;4985549;28;20034;-64
2024/01/02 02:29:59;;;;;;;21.73;9.90;;;19.30;61.00;;;;;;4993956;28;20093;-63
2024/01/02 02:32:25;;;;;;;21.02;9.55;;;19.30;61.30;;;;;;4993372;28;20049;-63
2024/01/02 02:34:51;;;;;;;21.80;8.65;;;19.30;60.90;;;;;;4976262;28;20080;-63
2024/01/02 02:37:17;;;;;;;21.15;9.23;;;19.30;60.90;;;;;;4977047;28;20035;-62
2024/01/02 02:39:42;;;;;;;19.88;8.85;;;19.30;61.10;;;;;;4994554;28;20030;-62
2024/01/02 02:42:08;;;;;;;18.08;8.30;;;19.30;60.70;;;;;;4968201;28;20437;-63
2024/01/02 02:44:34;;;;;;;23.73;9.20;;;19.30;60.60;;;;;;4976313;28;20434;-63
2024/01/02 02:47:00;;;;;;;22.10;9.00;;;19.30;61.00;;;;;;4977314;28;20030;-62
2024/01/02 02:49:26;;;;;;;21.77;9.13;;;19.30;61.20;;;;;;4995131;28;20022;-63
2024/01/02 02:51:52;;;;;;;19.80;8.52;;;19.30;61.80;;;;;;4994404;28;20460;-63
2024/01/02 02:54:18;;;;;;;19.77;8.60;;;19.30;61.60;;;;;;4994136;28;20027;-63
2024/01/02 02:56:45;;;;;;;20.77;8.73;;;19.30;61.20;;;;;;5011265;23;20050;-57
2024/01/02 02:59:13;;;;;;;21.10;8.82;;;19.30;60.60;;;;;;5002328;28;20026;-58
2024/01/02 03:01:39;;;;;;;18.13;8.30;;;19.30;61.60;;;;;;5000798;28;20034;-56
2024/01/02 03:04:05;;;;;;;20.92;7.95;;;19.30;60.60;;;;;;4997248;28;20022;-58
2024/01/02 03:06:31;;;;;;;20.75;8.43;;;19.30;60.80;;;;;;4993553;28;20027;-58
2024/01/02 03:08:56;;;;;;;17.13;7.88;;;19.30;60.70;;;;;;4993046;28;20409;-57
2024/01/02 03:11:22;;;;;;;19.25;8.43;;;19.30;60.80;;;;;;4994086;28;20045;-60
2024/01/02 03:13:48;;;;;;;19.75;7.80;;;19.30;60.60;;;;;;4976572;28;20030;-59
2024/01/02 03:16:19;;;;;;;19.15;8.30;;;19.30;60.40;;;;;;4993196;28;20041;-56
2024/01/02 03:18:45;;;;;;;18.45;7.57;;;19.30;60.40;;;;;;4976985;28;20053;-60
2024/01/02 03:21:11;;;;;;;16.77;7.68;;;19.30;60.50;;;;;;4994442;28;20018;-57
2024/01/02 03:23:37;;;;;;;17.70;7.72;;;19.30;60.60;;;;;;4994500;28;20093;-59
2024/01/02 03:26:04;;;;;;;16.58;7.63;;;19.30;60.30;;;;;;4973961;28;20073;-58
2024/01/02 03:28:30;;;;;;;17.45;7.15;;;19.30;60.20;;;;;;4993093;28;20026;-58
2024/01/02 03:30:57;;;;;;;18.75;7.75;;;19.30;60.30;;;;;;4976175;28;20022;-59
2024/01/02 03:33:23;;;;;;;18.15;7.80;;;19.30;60.10;;;;;;4994115;28;20031;-57
2024/01/02 03:35:48;;;;;;;14.35;6.82;;;19.30;60.60;;;;;;4975280;28;20069;-57
2024/01/02 03:38:15;;;;;;;18.08;7.43;;;19.20;60.10;;;;;;4994114;28;20509;-59
2024/01/02 03:40:41;;;;;;;16.38;6.97;;;19.30;60.10;;;;;;4993684;28;20457;-55
2024/01/02 03:43:07;;;;;;;15.23;7.28;;;19.30;60.00;;;;;;4993382;28;20030;-55
2024/01/02 03:45:33;;;;;;;16.92;7.25;;;19.30;60.20;;;;;;4992576;28;20097;-58
2024/01/02 03:48:00;;;;;;;17.65;6.28;;;19.30;60.00;;;;;;4992872;28;20084;-59
2024/01/02 03:50:26;;;;;;;18.52;6.72;;;19.20;60.60;;;;;;4976599;28;20037;-56
2024/01/02 03:52:52;;;;;;;14.02;6.50;;;19.20;60.00;;;;;;4993192;28;20398;-57
2024/01/02 03:55:17;;;;;;;15.52;7.13;;;19.20;60.00;;;;;;4992790;28;20018;-58
2024/01/02 03:57:43;;;;;;;15.65;7.03;;;19.20;60.00;;;;;;4993720;28;20045;-55
2024/01/02 04:00:10;;;;;;;18.73;7.40;;;19.20;60.00;;;;;;4993177;28;20109;-57
2024/01/02 04:02:37;;;;;;;14.63;6.63;;;19.20;60.20;;;;;;4993118;28;20045;-56
2024/01/02 04:05:03;;;;;;;15.70;6.57;;;19.20;60.40;;;;;;4975433;28;20502;-60
2024/01/02 04:07:29;;;;;;;18.17;6.57;;;19.20;60.20;;;;;;4992517;28;20050;-60
2024/01/02 04:09:55;;;;;;;11.70;5.82;;;19.20;60.70;;;;;;4992944;28;20100;-57
2024/01/02 04:12:21;;;;;;;17.38;6.68;;;19.20;60.90;;;;;;4993634;28;20029;-59
2024/01/02 04:14:47;;;;;;;12.57;6.10;;;19.20;61.10;;;;;;4992287;28;20034;-59
2024/01/02 04:17:12;;;;;;;16.10;6.75;;;19.20;61.00;;;;;;4992291;28;20034;-58
2024/01/02 04:19:38;;;;;;;17.05;6.75;;;19.20;60.60;;;;;;4993486;28;20030;-60
2024/01/02 04:22:04;;;;;;;15.15;5.85;;;19.20;60.70;;;;;;4992516;28;20076;-60
2024/01/02 04:24:30;;;;;;;12.02;5.63;;;19.20;61.10;;;;;;4992481;28;20031;-60
2024/01/02 04:26:56;;;;;;;14.15;6.30;;;19.20;60.30;;;;;;4992390;28;20038;-59
2024/01/02 04:29:22;;;;;;;13.35;6.05;;;19.20;61.50;;;;;;4992571;28;20511;-57
2024/01/02 04:31:48;;;;;;;14.52;5.95;;;19.20;60.90;;;;;;4992696;28;20023;-59
2024/01/02 04:34:13;;;;;;;16.85;6.25;;;19.20;61.10;;;;;;4992481;28;20030;-59
2024/01/02 04:36:44;;;;;;;14.23;6.30;;;19.20;60.60;;;;;;4974370;28;20058;-60
2024/01/02 04:39:10;;;;;;;15.05;5.95;;;19.20;61.60;;;;;;4992939;28;20034;-60
2024/01/02 04:41:36;;;;;;;16.08;6.03;;;19.20;60.30;;;;;;4974158;28;20084;-58
2024/01/02 04:44:01;;;;;;;13.73;5.63;;;19.20;59.80;;;;;;4992886;28;20030;-60
2024/01/02 04:46:27;;;;;;;14.32;5.85;;;19.30;60.00;;;;;;4991022;28;20133;-60
2024/01/02 04:48:54;;;;;;;13.40;5.50;;;19.30;59.90;;;;;;4991393;28;20097;-60
2024/01/02 04:51:20;;;;;;;14.00;5.78;;;19.30;59.80;;;;;;4992716;28;20038;-60
2024/01/02 04:53:46;;;;;;;16.35;5.60;;;19.30;60.50;;;;;;4992253;28;20030;-58
2024/01/02 04:56:12;;;;;;;13.48;5.72;;;19.40;60.50;;;;;;4991492;28;20105;-60
2024/01/02 04:58:37;;;;;;;21.38;5.75;;;19.40;60.60;;;;;;4992004;28;20062;-59
2024/01/02 05:01:03;;;;;;;12.15;5.32;;;19.40;60.80;;;;;;4992097;28;20054;-58
2024/01/02 05:03:29;;;;;;;13.68;5.50;;;19.50;60.80;;;;;;4991323;28;20113;-57
2024/01/02 05:05:55;;;;;;;12.38;5.32;;;19.50;60.50;;;;;;4991566;28;20611;-56
2024/01/02 05:08:21;;;;;;;13.73;5.03;;;19.50;60.70;;;;;;4992562;28;20057;-57
2024/01/02 05:10:47;;;;;;;13.27;5.18;;;19.50;60.90;;;;;;4974605;28;20027;-54
2024/01/02 05:13:13;;;;;;;15.55;5.53;;;19.60;60.80;;;;;;4991790;28;20109;-57
2024/01/02 05:15:38;;;;;;;13.32;5.07;;;19.50;60.70;;;;;;4990876;28;20034;-58
2024/01/02 05:18:04;;;;;;;14.63;5.43;;;19.60;60.90;;;;;;4991841;28;20413;-58
2024/01/02 05:20:30;;;;;;;11.48;5.20;;;19.60;61.00;;;;;;4991686;28;20030;-58
2024/01/02 05:23:01;;;;;;;10.48;5.10;;;19.60;61.00;;;;;;4991071;28;20417;-60
2024/01/02 05:25:27;;;;;;;12.98;5.15;;;19.60;60.90;;;;;;4991366;28;20034;-60
2024/01/02 05:27:52;;;;;;;9.73;4.75;;;19.60;60.80;;;;;;4991378;28;20117;-60
2024/01/02 05:30:18;;;;;;;10.50;4.97;;;19.60;60.90;;;;;;4991273;28;20441;-59
2024/01/02 05:32:44;;;;;;;12.88;5.28;;;19.60;60.80;;;;;;4992111;28;20034;-58
2024/01/02 05:35:10;;;;;;;12.63;5.28;;;19.60;60.90;;;;;;4973307;28;20034;-60
2024/01/02 05:37:36;;;;;;;11.57;5.13;;;19.60;60.80;;;;;;4991345;28;20034;-60
2024/01/02 05:40:03;;;;;;;11.48;4.78;;;19.60;60.90;;;;;;4991527;28;20026;-57
2024/01/02 05:42:29;;;;;;;12.60;4.50;;;19.60;60.80;;;;;;4991321;28;20391;-60
2024/01/02 05:44:55;;;;;;;11.68;5.05;;;19.60;60.80;;;;;;4991108;28;20030;-58
2024/01/02 05:47:21;;;;;;;11.38;4.63;;;19.60;60.80;;;;;;4989883;28;20034;-59
2024/01/02 05:49:46;;;;;;;10.77;5.03;;;19.50;60.50;;;;;;4990859;28;20034;-55
2024/01/02 05:52:12;;;;;;;11.10;4.90;;;19.60;60.90;;;;;;4991096;28;20102;-59
2024/01/02 05:54:38;;;;;;;12.88;4.63;;;19.60;60.80;;;;;;4991763;28;20045;-55
2024/01/02 05:57:04;;;;;;;14.48;4.93;;;19.60;60.70;;;;;;4990898;28;20056;-57
2024/01/02 05:59:29;;;;;;;12.93;5.60;;;19.60;61.10;;;;;;4991095;28;20034;-58
2024/01/02 06:01:55;;;;;;;10.85;4.72;;;19.60;60.80;;;;;;4991303;28;20034;-57
2024/01/02 06:04:21;;;;;;;10.20;4.47;;;19.60;61.00;;;;;;4973768;28;20053;-55
2024/01/02 06:06:47;;;;;;;10.52;4.68;;;19.60;60.90;;;;;;4991105;28;20121;-53
2024/01/02 06:09:13;;;;;;;9.75;4.57;;;19.60;61.00;;;;;;4991824;28;20073;-57
2024/01/02 06:11:39;;;;;;;10.23;4.70;;;19.50;60.90;;;;;;4990277;28;20080;-55
2024/01/02 06:14:04;;;;;;;10.82;4.90;;;19.50;60.70;;;;;;4991002;28;20105;-53
2024/01/02 06:16:30;;;;;;;8.38;4.53;;;19.50;61.10;;;;;;4990872;28;20022;-53
2024/01/02 06:18:56;;;;;;;12.25;5.10;;;19.50;61.10;;;;;;4991278;28;20109;-55
2024/01/02 06:21:21;;;;;;;10.15;4.03;;;19.50;61.00;;;;;;4989694;28;20451;-56
2024/01/02 06:23:47;;;;;;;11.90;4.03;;;19.50;60.90;;;;;;4973728;28;20406;-53
2024/01/02 06:26:13;;;;;;;10.10;4.45;;;19.50;61.10;;;;;;4990125;28;20050;-56
2024/01/02 06:28:39;;;;;;;10.30;4.45;;;19.50;60.90;;;;;;4991408;28;20030;-59
2024/01/02 06:31:05;;;;;;;11.27;4.82;;;19.50;61.00;;;;;;4991368;28;20026;-58
2024/01/02 06:33:31;;;;;;;11.20;4.55;;;19.50;61.10;;;;;;4990446;28;20030;-59
2024/01/02 06:35:57;;;;;;;11.95;4.43;;;19.50;61.00;;;;;;4990280;28;20031;-58
2024/01/02 06:38:23;;;;;;;9.52;4.45;;;19.60;61.20;;;;;;4990874;28;20029;-57
2024/01/02 06:40:49;;;;;;;9.30;4.45;;;19.50;60.90;;;;;;4990755;28;20532;-60
2024/01/02 06:43:14;;;;;;;10.85;4.78;;;19.50;61.00;;;;;;4990522;28;20394;-56
2024/01/02 06:45:40;;;;;;;13.10;4.43;;;19.60;61.00;;;;;;4991206;28;20394;-59
2024/01/02 06:48:06;;;;;;;9.88;4.50;;;19.60;61.10;;;;;;4990429;28;20497;-58
2024/01/02 06:50:32;;;;;;;10.65;4.53;;;19.60;60.90;;;;;;4990089;28;20022;-59
2024/01/02 06:52:59;;;;;;;13.18;4.40;;;19.60;60.30;;;;;;4991393;28;20057;-57
2024/01/02 06:55:25;;;;;;;12.80;4.30;;;19.60;60.70;;;;;;4990173;28;20487;-59
2024/01/02 06:57:51;;;;;;;10.27;4.75;;;19.60;60.70;;;;;;4990248;28;20034;-58
2024/01/02 07:00:17;;;;;;;10.15;4.00;;;19.60;60.30;;;;;;4991285;28;20489;-61
2024/01/02 07:02:43;;;;;;;10.77;4.45;;;19.60;59.90;;;;;;4992479;28;20077;-57
2024/01/02 07:05:14;;;;;;;11.27;4.40;;;19.60;60.20;;;;;;4994683;28;20058;-53
2024/01/02 07:07:40;;;;;;;10.05;4.38;;;19.50;60.00;;;;;;4991044;28;20045;-57
2024/01/02 07:10:06;;;;;;;9.13;3.88;;;19.50;60.00;;;;;;4993763;28;20497;-57
2024/01/02 07:12:32;;;;;;;8.30;4.22;;;19.50;60.10;;;;;;4992826;28;20026;-59
2024/01/02 07:14:58;;;;;;;10.32;3.80;;;19.50;59.70;;;;;;4993606;28;20098;-57
2024/01/02 07:17:24;;;;;;;9.00;3.97;;;19.50;60.10;;;;;;4993670;28;20061;-57
2024/01/02 07:19:51;;;;;;;10.45;4.75;;;19.50;59.90;;;;;;4993795;28;20026;-59
2024/01/02 07:22:17;;;;;;;8.43;4.00;;;19.50;59.90;;;;;;4993634;28;20383;-59
2024/01/02 07:24:44;;;;;;;10.85;5.00;;;19.50;60.10;;;;;;4992812;28;20030;-60
2024/01/02 07:27:10;;;;;;;11.15;4.40;;;19.50;60.40;;;;;;4993711;28;20113;-60
2024/01/02 07:29:35;;;;;;;10.65;4.78;;;19.50;60.30;;;;;;4991600;28;20022;-58
2024/01/02 07:32:01;;;;;;;9.55;4.38;;;19.50;60.30;;;;;;4994336;28;20375;-54
2024/01/02 07:34:27;;;;;;;7.72;4.00;;;19.50;60.40;;;;;;4993111;28;20073;-54
2024/01/02 07:36:53;;;;;;;10.02;4.28;;;19.50;60.30;;;;;;4993211;28;20405;-57
2024/01/02 07:39:19;;;;;;;11.20;4.38;;;19.50;60.40;;;;;;4976088;28;20030;-57
2024/01/02 07:41:45;;;;;;;9.82;4.47;;;19.50;60.40;;;;;;4993313;28;20030;-57
2024/01/02 07:44:11;;;;;;;8.75;3.72;;;19.50;60.40;;;;;;4993926;28;20038;-58
2024/01/02 07:46:36;;;;;;;10.30;4.30;;;19.50;60.20;;;;;;4993446;28;20038;-59
2024/01/02 07:49:02;;;;;;;14.05;4.80;;;19.50;60.20;;;;;;4993731;28;20441;-56
2024/01/02 07:51:28;;;;;;;9.02;4.55;;;19.50;60.20;;;;;;4993850;28;20061;-57
2024/01/02 07:53:54;;;;;;;8.75;4.22;;;19.50;60.20;;;;;;4993773;28;20117;-55
2024/01/02 07:56:21;;;;;;;10.13;4.38;;;19.50;59.60;;;;;;4991802;28;20045;-55
2024/01/02 07:58:46;;;;;;;8.98;3.97;;;19.50;60.10;;;;;;4992617;28;20501;-58
2024/01/02 08:01:13;;;;;;;9.18;4.25;;;19.50;60.00;;;;;;4993679;28;20030;-59
2024/01/02 08:03:39;;;;;;;10.32;4.00;;;19.50;60.10;;;;;;4956551;28;20423;-53
2024/01/02 08:06:05;;;;;;;10.40;4.38;;;19.50;60.10;;;;;;4988449;28;20030;-59
2024/01/02 08:08:31;;;;;;;11.07;4.00;;;19.50;60.20;;;;;;4993323;28;20127;-57
2024/01/02 08:10:57;;;;;;;10.18;4.35;;;19.50;60.10;;;;;;4975142;28;20022;-60
2024/01/02 08:13:22;;;;;;;9.38;4.00;;;19.50;60.00;;;;;;4992262;28;20105;-61
2024/01/02 08:15:48;;;;;;;13.32;4.30;;;19.50;60.10;;;;;;4992490;28;20433;-61
2024/01/02 08:18:14;;;;;;;7.55;3.67;;;19.50;60.00;;;;;;4992392;28;20401;-60
2024/01/02 08:20:40;;;;;;;9.48;4.20;;;19.50;59.60;;;;;;4993496;28;20085;-58
2024/01/02 08:23:06;;;;;;;8.27;3.90;;;19.50;60.00;;;;;;4991590;28;20049;-57
2024/01/02 08:25:33;;;;;;;9.45;4.15;;;19.50;59.40;;;;;;4992939;28;20027;-60
2024/01/02 08:27:59;;;;;;;9.38;3.75;;;19.50;59.60;;;;;;4991571;28;20030;-61
2024/01/02 08:30:25;;;;;;;12.93;4.72;;;19.50;59.20;;;;;;4992065;28;20073;-58
2024/01/02 08:32:50;;;;;;;9.70;4.10;;;19.50;59.60;;;;;;4988663;28;20027;-59
2024/01/02 08:35:17;;;;;;;8.63;4.10;;;19.50;59.10;;;;;;4992750;28;20026;-60
2024/01/02 08:37:43;;;;;;;9.75;4.25;;;19.50;59.60;;;;;;4974039;28;20565;-56
2024/01/02 08:40:10;;;;;;;11.75;4.13;;;19.50;59.40;;;;;;4992052;28;20105;-58
2024/01/02 08:42:37;;;;;;;9.02;3.90;;;19.50;59.10;;;;;;4984528;28;20662;-59
2024/01/02 08:45:04;;;;;;;8.45;3.83;;;19.50;59.40;;;;;;4991336;28;20101;-55
2024/01/02 08:47:32;;;;;;;9.25;4.40;;;19.50;60.10;;;;;;4991858;28;20041;-60
2024/01/02 08:49:57;;;;;;;9.52;3.95;;;19.50;59.50;;;;;;4993712;28;20031;-58
2024/01/02 08:52:23;;;;;;;8.73;4.10;;;19.50;59.80;;;;;;4991983;28;20014;-60
2024/01/02 08:54:49;;;;;;;8.45;3.72;;;19.50;59.60;;;;;;4991791;28;20037;-58
2024/01/02 08:57:15;;;;;;;8.60;4.05;;;19.50;59.70;;;;;;5020569;23;20073;-59
2024/01/02 08:59:41;;;;;;;6.28;3.40;;;19.50;59.90;;;;;;4993934;28;20486;-59
2024/01/02 09:02:07;;;;;;;8.38;4.10;;;19.50;59.70;;;;;;5008677;28;20033;-59
2024/01/02 09:04:33;;;;;;;11.82;4.28;;;19.50;60.00;;;;;;4997775;28;20097;-60
2024/01/02 09:06:59;;;;;;;10.60;4.03;;;19.50;60.20;;;;;;4994490;28;20061;-60
2024/01/02 09:09:24;;;;;;;8.43;4.28;;;19.50;60.20;;;;;;5010747;28;20072;-60
2024/01/02 09:11:50;;;;;;;8.88;3.88;;;19.50;60.20;;;;;;5011423;28;20025;-60
2024/01/02 09:14:16;;;;;;;8.77;4.28;;;19.50;60.40;;;;;;5010964;28;20520;-59
2024/01/02 09:16:43;;;;;;;7.82;3.50;;;19.50;60.10;;;;;;5011219;28;20034;-57
2024/01/02 09:19:09;;;;;;;8.50;3.70;;;19.50;60.10;;;;;;4993687;28;20068;-60
2024/01/02 09:21:35;;;;;;;13.40;3.83;;;19.50;60.10;;;;;;5011993;28;20080;-56
2024/01/02 09:24:00;;;;;;;11.48;4.15;;;19.50;60.10;;;;;;5008658;28;20025;-59
2024/01/02 09:26:29;;;;;;;11.02;4.43;;;19.50;60.00;;;;;;5010334;28;20070;-60
2024/01/02 09:28:55;;;;;;;9.88;3.75;;;19.50;60.00;;;;;;5009782;28;20025;-59
2024/01/02 09:31:25;;;;;;;9.18;4.22;;;19.50;60.00;;;;;;5010163;28;20026;-57
2024/01/02 09:33:51;;;;;;;8.60;4.10;;;19.50;59.90;;;;;;5010844;28;20080;-59
2024/01/02 09:36:16;;;;;;;7.72;4.03;;;19.50;59.80;;;;;;5010364;28;20022;-58
2024/01/02 09:38:42;;;;;;;8.25;3.88;;;19.50;60.00;;;;;;4993967;28;20387;-57
2024/01/02 09:41:26;;;;;;;8.55;3.88;;;19.50;59.70;;;;;;4994193;28;20033;-56
2024/01/02 09:44:16;;;;;;;9.05;4.15;;;19.50;59.70;;;;;;5011035;28;20022;-59
2024/01/02 09:46:58;;;;;;;9.93;4.13;;;19.50;59.90;;;;;;5003266;28;20030;-59
2024/01/02 09:49:49;;;;;;;8.55;4.03;;;19.50;60.10;;;;;;5010114;28;20033;-60
2024/01/02 09:52:39;;;;;;;10.27;4.50;;;19.50;60.20;;;;;;5001026;28;20038;-56
2024/01/02 09:55:17;;;;;;;10.35;3.80;;;19.50;60.20;;;;;;5006411;28;20034;-59
2024/01/02 09:58:03;;;;;;;14.55;4.10;;;19.50;60.50;;;;;;5003872;28;20033;-60
2024/01/02 10:00:46;;;;;;;9.85;4.10;;;19.50;60.30;;;;;;4983819;28;20046;-60
2024/01/02 10:03:41;;;;;;;12.45;4.45;;;19.50;60.40;;;;;;5011508;28;20059;-59
2024/01/02 10:06:34;;;;;;;11.95;4.18;;;19.50;60.10;;;;;;5010969;28;20083;-60
2024/01/02 10:09:25;;;;;;;9.98;3.83;;;19.50;60.30;;;;;;5011398;28;20034;-59
2024/01/02 10:12:03;;;;;;;10.68;4.20;;;19.50;60.30;;;;;;5011080;28;20081;-57
2024/01/02 10:15:10;;;;;;;9.52;3.70;;;19.60;60.50;;;;;;5011051;28;20049;-59
2024/01/02 10:18:01;;;;;;;10.52;4.53;;;19.50;60.20;;;;;;4898224;29;20067;-59
2024/01/02 10:20:45;;;;;;;8.60;3.80;;;19.60;60.30;;;;;;4912449;29;20107;-60
2024/01/02 10:23:35;;;;;;;8.07;3.70;;;19.60;60.20;;;;;;4911670;29;20046;-59
2024/01/02 10:26:06;;;;;;;11.18;3.80;;;19.50;59.60;;;;;;4915573;29;20582;-58
2024/01/02 10:28:34;;;;;;;9.27;4.38;;;19.50;60.00;;;;;;4931003;29;20024;-58
2024/01/02 10:31:04;;;;;;;12.75;4.03;;;19.50;60.50;;;;;;4931678;29;20035;-57
2024/01/02 10:33:40;;;;;;;12.20;3.60;;;19.50;60.20;;;;;;4931581;29;20412;-59
2024/01/02 10:36:10;;;;;;;20.77;4.32;;;19.50;60.60;;;;;;4932526;29;20059;-60
2024/01/02 10:38:43;;;;;;;;;;;19.50;60.60;;;;;;4935674;29;20059;-60
2024/01/02 10:41:29;;;;;;;15.85;4.22;;;19.50;60.60;;;;;;4935237;29;19917;-57
2024/01/02 10:44:09;;;;;;;15.70;4.20;;;19.50;60.80;;;;;;4930051;29;20044;-59
2024/01/02 10:46:46;;;;;;;15.73;4.35;;;19.50;60.50;;;;;;4926236;29;20047;-59
2024/01/02 10:49:26;;;;;;;8.57;3.85;;;19.50;60.70;;;;;;4930723;29;20123;-58
2024/01/02 10:52:01;;;;;;;17.30;4.13;;;19.60;60.50;;;;;;4913696;28;20040;-58
2024/01/02 10:54:44;;;;;;;16.70;4.30;;;19.60;60.80;;;;;;5014258;28;20029;-58
2024/01/02 10:57:18;;;;;;;14.20;4.47;;;19.60;61.50;;;;;;5005056;28;20030;-59
2024/01/02 11:00:22;;;;;;;8.63;4.03;;;19.60;61.00;;;;;;5006671;28;20122;-58
2024/01/02 11:02:53;;;;;;;17.77;4.50;;;19.60;61.10;;;;;;4914375;29;20036;-59
2024/01/02 11:05:39;;;;;;;11.40;4.25;;;19.60;61.00;;;;;;4914599;29;20040;-58
2024/01/02 11:08:25;;;;;;;11.20;4.10;;;19.60;60.70;;;;;;4909277;29;20040;-58
2024/01/02 11:10:59;;;;;;;10.57;4.20;;;19.60;61.50;;;;;;4915201;29;20548;-60
2024/01/02 11:13:27;;;;;;;10.75;4.25;;;19.70;62.30;;;;;;4908184;29;20123;-60
2024/01/02 11:16:09;;;;;;;12.00;4.68;;;19.70;62.40;;;;;;4902193;29;20039;-59
2024/01/02 11:18:37;;;;;;;14.73;4.70;;;19.70;63.20;;;;;;4900787;29;20059;-59
2024/01/02 11:21:28;;;;;;;14.55;4.88;;;19.80;64.20;;;;;;4913271;29;20040;-61
2024/01/02 11:23:56;;;;;;;12.50;4.63;;;19.80;62.90;;;;;;4908615;29;20835;-61
2024/01/02 11:26:27;;;;;;;9.75;4.78;;;19.90;64.50;;;;;;4911492;29;20130;-61
2024/01/02 11:28:57;;;;;;;11.38;4.97;;;19.90;63.40;;;;;;4911403;29;20556;-61
2024/01/02 11:31:25;;;;;;;12.57;5.50;;;19.90;63.30;;;;;;4909744;29;20115;-60
2024/01/02 11:34:35;;;;;;;15.02;5.60;;;19.90;62.60;;;;;;4911198;29;20038;-61
2024/01/02 11:37:33;;;;;;;16.58;5.15;;;19.90;62.20;;;;;;4908806;29;20142;-62
2024/01/02 11:40:19;;;;;;;19.20;5.65;;;19.90;62.20;;;;;;5006370;28;20061;-59
2024/01/02 11:43:13;;;;;;;16.73;5.05;;;19.90;61.80;;;;;;5010366;28;20037;-60
2024/01/02 11:45:42;;;;;;;13.05;5.32;;;19.90;61.80;;;;;;5008415;28;20092;-61
2024/01/02 11:48:17;;;;;;;20.27;5.32;;;19.90;61.90;;;;;;5006043;28;20069;-63
2024/01/02 11:50:52;;;;;;;21.77;5.63;;;19.90;62.00;;;;;;5010194;28;20038;-62
2024/01/02 11:53:50;;;;;;;12.90;5.50;;;20.00;62.20;;;;;;5008185;28;20034;-61
2024/01/02 11:56:18;;;;;;;21.83;4.75;;;20.00;61.90;;;;;;5007241;28;20026;-60
2024/01/02 11:58:56;;;;;;;16.77;3.20;;;19.80;60.40;;;;;;5017548;28;20028;-62
2024/01/02 12:01:34;;;;;;;11.43;2.92;;;19.60;57.20;;;;;;5005344;28;20051;-60
2024/01/02 12:04:42;;;;;;;7.97;2.22;;;19.30;54.20;;;;;;5007179;28;20417;-62
2024/01/02 12:07:17;;;;;;;8.85;2.80;;;19.10;53.10;;;;;;4927561;29;20048;-65
2024/01/02 12:09:46;;;;;;;15.00;2.88;;;19.00;51.80;;;;;;4928279;29;20543;-61
2024/01/02 12:12:48;;;;;;;11.20;3.03;;;19.00;52.40;;;;;;4929218;29;20054;-61
2024/01/02 12:15:24;;;;;;;8.55;3.05;;;19.20;53.60;;;;;;4929478;29;20031;-61
2024/01/02 12:17:55;;;;;;;15.57;3.63;;;19.30;54.30;;;;;;4932812;29;20464;-60
2024/01/02 12:20:23;;;;;;;19.58;3.70;;;19.40;54.40;;;;;;4928564;29;20085;-61
2024/01/02 12:22:49;;;;;;;8.43;3.13;;;19.50;55.00;;;;;;4928919;29;20131;-61
2024/01/02 12:25:15;;;;;;;17.50;4.07;;;19.50;54.80;;;;;;4937046;29;20102;-69
2024/01/02 12:27:45;;;;;;;21.25;3.15;;;19.50;55.10;;;;;;4934821;29;20032;-54
2024/01/02 12:30:16;;;;;;;;;;;19.60;56.00;;;;;;4942023;29;20049;-58
2024/01/02 12:32:56;;;;;;;17.67;4.20;;;19.50;55.50;;;;;;4932417;29;19914;-55
2024/01/02 12:35:28;;;;;;;10.82;3.45;;;19.60;55.30;;;;;;4936079;29;20024;-58
2024/01/02 12:38:12;;;;;;;13.57;3.78;;;19.60;55.50;;;;;;4935568;29;20035;-58
2024/01/02 12:40:44;;;;;;;12.77;3.83;;;19.50;55.50;;;;;;4932286;29;20075;-59
2024/01/02 12:43:12;;;;;;;10.00;3.45;;;19.50;55.70;;;;;;4962468;28;20161;-53
2024/01/02 12:45:50;;;;;;;12.73;3.63;;;19.50;55.80;;;;;;5011535;28;20432;-58
2024/01/02 12:48:22;;;;;;;11.85;4.13;;;19.60;55.90;;;;;;5011790;28;20121;-56